sensor_id;sensor_type;location;lat;lon;timestamp;temperature;humidity
67050;DHT22;53955;52.442;13.284;2022-09-01T00:01:56;20.10;44.60
67050;DHT22;53955;52.442;13.284;2022-09-01T00:04:25;20.10;44.10
67050;DHT22;53955;52.442;13.284;2022-09-01T00:06:52;20.10;43.70
67050;DHT22;53955;52.442;13.284;2022-09-01T00:09:21;20.10;44.00
67050;DHT22;53955;52.442;13.284;2022-09-01T00:11:50;20.10;43.10
67050;DHT22;53955;52.442;13.284;2022-09-01T00:14:19;20.10;43.40
67050;DHT22;53955;52.442;13.284;2022-09-01T00:16:46;20.10;43.20
67050;DHT22;53955;52.442;13.284;2022-09-01T00:19:13;20.00;43.10
67050;DHT22;53955;52.442;13.284;2022-09-01T00:21:43;20.10;42.70
67050;DHT22;53955;52.442;13.284;2022-09-01T00:24:12;20.00;43.10
67050;DHT22;53955;52.442;13.284;2022-09-01T00:26:39;19.90;42.40
67050;DHT22;53955;52.442;13.284;2022-09-01T00:29:06;19.90;43.40
67050;DHT22;53955;52.442;13.284;2022-09-01T00:31:33;20.00;42.80
67050;DHT22;53955;52.442;13.284;2022-09-01T00:34:01;20.00;42.20
67050;DHT22;53955;52.442;13.284;2022-09-01T00:36:28;20.00;41.10
67050;DHT22;53955;52.442;13.284;2022-09-01T00:38:56;20.00;40.60
67050;DHT22;53955;52.442;13.284;2022-09-01T00:41:25;20.10;40.90
67050;DHT22;53955;52.442;13.284;2022-09-01T00:43:53;20.00;40.40
67050;DHT22;53955;52.442;13.284;2022-09-01T00:46:22;20.10;41.30
67050;DHT22;53955;52.442;13.284;2022-09-01T00:48:53;20.10;38.90
67050;DHT22;53955;52.442;13.284;2022-09-01T00:51:21;20.10;39.10
67050;DHT22;53955;52.442;13.284;2022-09-01T00:53:48;20.20;38.80
67050;DHT22;53955;52.442;13.284;2022-09-01T00:56:17;20.10;38.90
67050;DHT22;53955;52.442;13.284;2022-09-01T00:58:44;20.00;39.80
67050;DHT22;53955;52.442;13.284;2022-09-01T01:01:11;20.10;39.60
67050;DHT22;53955;52.442;13.284;2022-09-01T01:03:38;20.10;39.50
67050;DHT22;53955;52.442;13.284;2022-09-01T01:06:09;20.00;38.20
67050;DHT22;53955;52.442;13.284;2022-09-01T01:08:40;20.00;38.60
67050;DHT22;53955;52.442;13.284;2022-09-01T01:11:10;20.00;39.30
67050;DHT22;53955;52.442;13.284;2022-09-01T01:13:54;19.90;39.10
67050;DHT22;53955;52.442;13.284;2022-09-01T01:16:22;20.00;39.20
67050;DHT22;53955;52.442;13.284;2022-09-01T01:18:49;20.00;39.10
67050;DHT22;53955;52.442;13.284;2022-09-01T01:21:20;19.90;38.40
67050;DHT22;53955;52.442;13.284;2022-09-01T01:24:17;20.00;39.80
67050;DHT22;53955;52.442;13.284;2022-09-01T01:26:44;20.00;39.40
67050;DHT22;53955;52.442;13.284;2022-09-01T01:29:11;20.00;39.50
67050;DHT22;53955;52.442;13.284;2022-09-01T01:31:39;20.00;39.10
67050;DHT22;53955;52.442;13.284;2022-09-01T01:34:05;19.90;39.50
67050;DHT22;53955;52.442;13.284;2022-09-01T01:36:34;20.00;39.90
67050;DHT22;53955;52.442;13.284;2022-09-01T01:39:05;19.90;40.60
67050;DHT22;53955;52.442;13.284;2022-09-01T01:41:34;19.90;40.00
67050;DHT22;53955;52.442;13.284;2022-09-01T01:44:05;19.90;40.20
67050;DHT22;53955;52.442;13.284;2022-09-01T01:46:34;19.90;40.10
67050;DHT22;53955;52.442;13.284;2022-09-01T01:49:00;19.80;41.50
67050;DHT22;53955;52.442;13.284;2022-09-01T01:51:28;19.80;41.30
67050;DHT22;53955;52.442;13.284;2022-09-01T01:53:56;19.80;41.20
67050;DHT22;53955;52.442;13.284;2022-09-01T01:56:24;19.80;41.50
67050;DHT22;53955;52.442;13.284;2022-09-01T01:58:54;19.80;41.20
67050;DHT22;53955;52.442;13.284;2022-09-01T02:01:22;19.70;41.80
67050;DHT22;53955;52.442;13.284;2022-09-01T02:03:50;19.70;41.80
67050;DHT22;53955;52.442;13.284;2022-09-01T02:06:20;19.60;42.30
67050;DHT22;53955;52.442;13.284;2022-09-01T02:08:49;19.70;43.00
67050;DHT22;53955;52.442;13.284;2022-09-01T02:11:16;19.60;43.50
67050;DHT22;53955;52.442;13.284;2022-09-01T02:13:44;19.60;43.30
67050;DHT22;53955;52.442;13.284;2022-09-01T02:16:12;19.50;44.40
67050;DHT22;53955;52.442;13.284;2022-09-01T02:18:41;19.50;44.80
67050;DHT22;53955;52.442;13.284;2022-09-01T02:21:10;19.40;45.50
67050;DHT22;53955;52.442;13.284;2022-09-01T02:23:39;19.50;45.20
67050;DHT22;53955;52.442;13.284;2022-09-01T02:26:08;19.50;44.70
67050;DHT22;53955;52.442;13.284;2022-09-01T02:28:37;19.60;45.80
67050;DHT22;53955;52.442;13.284;2022-09-01T02:31:07;19.50;45.50
67050;DHT22;53955;52.442;13.284;2022-09-01T02:33:38;19.50;45.90
67050;DHT22;53955;52.442;13.284;2022-09-01T02:36:08;19.50;45.30
67050;DHT22;53955;52.442;13.284;2022-09-01T02:38:37;19.50;46.30
67050;DHT22;53955;52.442;13.284;2022-09-01T02:41:06;19.40;46.20
67050;DHT22;53955;52.442;13.284;2022-09-01T02:43:33;19.40;46.80
67050;DHT22;53955;52.442;13.284;2022-09-01T02:46:01;19.50;46.30
67050;DHT22;53955;52.442;13.284;2022-09-01T02:48:31;19.50;46.20
67050;DHT22;53955;52.442;13.284;2022-09-01T02:51:05;19.50;47.00
67050;DHT22;53955;52.442;13.284;2022-09-01T02:53:33;19.40;46.80
67050;DHT22;53955;52.442;13.284;2022-09-01T02:56:00;19.50;47.30
67050;DHT22;53955;52.442;13.284;2022-09-01T02:58:29;19.30;47.10
67050;DHT22;53955;52.442;13.284;2022-09-01T03:00:57;19.50;47.50
67050;DHT22;53955;52.442;13.284;2022-09-01T03:03:24;19.40;47.30
67050;DHT22;53955;52.442;13.284;2022-09-01T03:05:52;19.40;48.00
67050;DHT22;53955;52.442;13.284;2022-09-01T03:08:23;19.30;47.80
67050;DHT22;53955;52.442;13.284;2022-09-01T03:10:51;19.30;47.80
67050;DHT22;53955;52.442;13.284;2022-09-01T03:13:20;19.30;47.90
67050;DHT22;53955;52.442;13.284;2022-09-01T03:15:48;19.30;48.40
67050;DHT22;53955;52.442;13.284;2022-09-01T03:18:15;19.20;48.10
67050;DHT22;53955;52.442;13.284;2022-09-01T03:20:43;19.10;49.30
67050;DHT22;53955;52.442;13.284;2022-09-01T03:23:13;19.10;49.30
67050;DHT22;53955;52.442;13.284;2022-09-01T03:25:42;19.00;50.20
67050;DHT22;53955;52.442;13.284;2022-09-01T03:28:10;19.00;49.80
67050;DHT22;53955;52.442;13.284;2022-09-01T03:30:39;18.90;49.90
67050;DHT22;53955;52.442;13.284;2022-09-01T03:33:09;18.90;50.50
67050;DHT22;53955;52.442;13.284;2022-09-01T03:35:36;18.90;50.80
67050;DHT22;53955;52.442;13.284;2022-09-01T03:38:03;18.80;51.00
67050;DHT22;53955;52.442;13.284;2022-09-01T03:40:33;18.80;51.60
67050;DHT22;53955;52.442;13.284;2022-09-01T03:43:03;18.70;50.60
67050;DHT22;53955;52.442;13.284;2022-09-01T03:45:31;18.70;51.10
67050;DHT22;53955;52.442;13.284;2022-09-01T03:48:00;18.80;51.50
67050;DHT22;53955;52.442;13.284;2022-09-01T03:50:31;18.70;51.60
67050;DHT22;53955;52.442;13.284;2022-09-01T03:52:58;18.70;51.20
67050;DHT22;53955;52.442;13.284;2022-09-01T03:55:27;18.70;51.50
67050;DHT22;53955;52.442;13.284;2022-09-01T03:57:56;18.70;51.40
67050;DHT22;53955;52.442;13.284;2022-09-01T04:00:28;18.70;51.10
67050;DHT22;53955;52.442;13.284;2022-09-01T04:02:58;18.60;52.10
67050;DHT22;53955;52.442;13.284;2022-09-01T04:05:27;18.50;52.50
67050;DHT22;53955;52.442;13.284;2022-09-01T04:07:55;18.60;51.80
67050;DHT22;53955;52.442;13.284;2022-09-01T04:10:22;18.40;52.50
67050;DHT22;53955;52.442;13.284;2022-09-01T04:12:50;18.30;53.10
67050;DHT22;53955;52.442;13.284;2022-09-01T04:15:17;18.40;53.00
67050;DHT22;53955;52.442;13.284;2022-09-01T04:17:45;18.40;52.80
67050;DHT22;53955;52.442;13.284;2022-09-01T04:20:34;18.40;53.00
67050;DHT22;53955;52.442;13.284;2022-09-01T04:23:12;18.30;54.20
67050;DHT22;53955;52.442;13.284;2022-09-01T04:25:41;18.30;54.20
67050;DHT22;53955;52.442;13.284;2022-09-01T04:28:08;18.20;54.00
67050;DHT22;53955;52.442;13.284;2022-09-01T04:30:42;18.20;54.20
67050;DHT22;53955;52.442;13.284;2022-09-01T04:33:10;18.20;54.10
67050;DHT22;53955;52.442;13.284;2022-09-01T04:35:37;18.20;54.30
67050;DHT22;53955;52.442;13.284;2022-09-01T04:38:05;18.20;54.50
67050;DHT22;53955;52.442;13.284;2022-09-01T04:40:35;18.20;54.80
67050;DHT22;53955;52.442;13.284;2022-09-01T04:43:03;18.20;55.20
67050;DHT22;53955;52.442;13.284;2022-09-01T04:45:30;18.30;54.30
67050;DHT22;53955;52.442;13.284;2022-09-01T04:47:59;18.20;55.10
67050;DHT22;53955;52.442;13.284;2022-09-01T04:50:27;18.20;54.60
67050;DHT22;53955;52.442;13.284;2022-09-01T04:52:57;18.30;54.40
67050;DHT22;53955;52.442;13.284;2022-09-01T04:55:25;18.30;54.90
67050;DHT22;53955;52.442;13.284;2022-09-01T04:57:54;18.30;54.30
67050;DHT22;53955;52.442;13.284;2022-09-01T05:00:24;18.30;54.70
67050;DHT22;53955;52.442;13.284;2022-09-01T05:02:52;18.20;55.20
67050;DHT22;53955;52.442;13.284;2022-09-01T05:05:19;18.30;54.70
67050;DHT22;53955;52.442;13.284;2022-09-01T05:07:48;18.30;55.10
67050;DHT22;53955;52.442;13.284;2022-09-01T05:10:18;18.20;54.80
67050;DHT22;53955;52.442;13.284;2022-09-01T05:12:45;18.30;55.30
67050;DHT22;53955;52.442;13.284;2022-09-01T05:15:12;18.40;55.10
67050;DHT22;53955;52.442;13.284;2022-09-01T05:17:39;18.50;54.20
67050;DHT22;53955;52.442;13.284;2022-09-01T05:20:09;18.50;54.30
67050;DHT22;53955;52.442;13.284;2022-09-01T05:22:36;18.50;53.90
67050;DHT22;53955;52.442;13.284;2022-09-01T05:25:07;18.60;53.50
67050;DHT22;53955;52.442;13.284;2022-09-01T05:27:38;18.70;53.30
67050;DHT22;53955;52.442;13.284;2022-09-01T05:30:06;18.70;54.00
67050;DHT22;53955;52.442;13.284;2022-09-01T05:32:33;18.90;52.70
67050;DHT22;53955;52.442;13.284;2022-09-01T05:35:02;20.40;49.00
67050;DHT22;53955;52.442;13.284;2022-09-01T05:37:31;22.60;41.70
67050;DHT22;53955;52.442;13.284;2022-09-01T05:39:58;24.10;36.10
67050;DHT22;53955;52.442;13.284;2022-09-01T05:42:26;25.70;32.90
67050;DHT22;53955;52.442;13.284;2022-09-01T05:44:52;27.60;29.00
67050;DHT22;53955;52.442;13.284;2022-09-01T05:47:19;29.90;25.10
67050;DHT22;53955;52.442;13.284;2022-09-01T05:49:47;31.20;22.60
67050;DHT22;53955;52.442;13.284;2022-09-01T05:52:14;32.10;21.30
67050;DHT22;53955;52.442;13.284;2022-09-01T05:54:41;33.60;20.20
67050;DHT22;53955;52.442;13.284;2022-09-01T05:57:07;34.50;17.90
67050;DHT22;53955;52.442;13.284;2022-09-01T05:59:36;35.10;17.80
67050;DHT22;53955;52.442;13.284;2022-09-01T06:02:05;34.80;16.90
67050;DHT22;53955;52.442;13.284;2022-09-01T06:04:33;35.40;16.90
67050;DHT22;53955;52.442;13.284;2022-09-01T06:07:03;35.60;16.70
67050;DHT22;53955;52.442;13.284;2022-09-01T06:09:36;35.60;16.10
67050;DHT22;53955;52.442;13.284;2022-09-01T06:12:04;37.20;14.70
67050;DHT22;53955;52.442;13.284;2022-09-01T06:14:30;37.80;14.30
67050;DHT22;53955;52.442;13.284;2022-09-01T06:16:59;38.40;13.30
67050;DHT22;53955;52.442;13.284;2022-09-01T06:19:26;38.60;13.20
67050;DHT22;53955;52.442;13.284;2022-09-01T06:21:53;38.00;14.00
67050;DHT22;53955;52.442;13.284;2022-09-01T06:24:21;37.30;14.00
67050;DHT22;53955;52.442;13.284;2022-09-01T06:26:47;38.10;12.80
67050;DHT22;53955;52.442;13.284;2022-09-01T06:29:14;38.60;12.30
67050;DHT22;53955;52.442;13.284;2022-09-01T06:31:41;39.00;12.60
67050;DHT22;53955;52.442;13.284;2022-09-01T06:34:13;39.70;11.70
67050;DHT22;53955;52.442;13.284;2022-09-01T06:36:43;38.80;11.90
67050;DHT22;53955;52.442;13.284;2022-09-01T06:39:16;38.50;12.00
67050;DHT22;53955;52.442;13.284;2022-09-01T06:41:45;38.60;12.00
67050;DHT22;53955;52.442;13.284;2022-09-01T06:44:13;38.40;11.80
67050;DHT22;53955;52.442;13.284;2022-09-01T06:46:40;38.30;11.70
67050;DHT22;53955;52.442;13.284;2022-09-01T06:49:07;38.40;11.70
67050;DHT22;53955;52.442;13.284;2022-09-01T06:51:38;38.80;11.30
67050;DHT22;53955;52.442;13.284;2022-09-01T06:54:05;38.50;11.40
67050;DHT22;53955;52.442;13.284;2022-09-01T06:56:32;38.50;10.70
67050;DHT22;53955;52.442;13.284;2022-09-01T06:59:00;38.40;10.60
67050;DHT22;53955;52.442;13.284;2022-09-01T07:01:30;38.70;10.60
67050;DHT22;53955;52.442;13.284;2022-09-01T07:03:58;37.30;11.40
67050;DHT22;53955;52.442;13.284;2022-09-01T07:06:26;35.30;12.60
67050;DHT22;53955;52.442;13.284;2022-09-01T07:08:56;33.90;13.30
67050;DHT22;53955;52.442;13.284;2022-09-01T07:11:25;32.20;15.90
67050;DHT22;53955;52.442;13.284;2022-09-01T07:13:55;31.40;17.00
67050;DHT22;53955;52.442;13.284;2022-09-01T07:16:24;30.80;17.20
67050;DHT22;53955;52.442;13.284;2022-09-01T07:18:54;29.70;19.00
67050;DHT22;53955;52.442;13.284;2022-09-01T07:21:23;28.60;20.40
67050;DHT22;53955;52.442;13.284;2022-09-01T07:23:50;28.40;21.10
67050;DHT22;53955;52.442;13.284;2022-09-01T07:26:20;28.30;20.20
67050;DHT22;53955;52.442;13.284;2022-09-01T07:28:49;28.10;21.40
67050;DHT22;53955;52.442;13.284;2022-09-01T07:31:18;27.90;21.50
67050;DHT22;53955;52.442;13.284;2022-09-01T07:33:46;28.00;22.40
67050;DHT22;53955;52.442;13.284;2022-09-01T07:36:13;27.50;21.20
67050;DHT22;53955;52.442;13.284;2022-09-01T07:38:40;27.60;23.40
67050;DHT22;53955;52.442;13.284;2022-09-01T07:41:08;27.40;22.50
67050;DHT22;53955;52.442;13.284;2022-09-01T07:43:36;27.60;22.30
67050;DHT22;53955;52.442;13.284;2022-09-01T07:46:07;27.40;21.50
67050;DHT22;53955;52.442;13.284;2022-09-01T07:48:34;27.20;22.60
67050;DHT22;53955;52.442;13.284;2022-09-01T07:51:00;27.40;21.00
67050;DHT22;53955;52.442;13.284;2022-09-01T07:53:30;27.40;21.90
67050;DHT22;53955;52.442;13.284;2022-09-01T07:55:59;27.50;20.20
67050;DHT22;53955;52.442;13.284;2022-09-01T07:58:27;27.30;22.20
67050;DHT22;53955;52.442;13.284;2022-09-01T08:00:55;27.70;21.00
67050;DHT22;53955;52.442;13.284;2022-09-01T08:03:27;27.80;21.20
67050;DHT22;53955;52.442;13.284;2022-09-01T08:05:54;27.90;20.70
67050;DHT22;53955;52.442;13.284;2022-09-01T08:08:25;27.60;20.80
67050;DHT22;53955;52.442;13.284;2022-09-01T08:10:52;27.30;19.60
67050;DHT22;53955;52.442;13.284;2022-09-01T08:13:19;27.10;20.40
67050;DHT22;53955;52.442;13.284;2022-09-01T08:15:45;26.70;22.00
67050;DHT22;53955;52.442;13.284;2022-09-01T08:18:14;26.80;22.00
67050;DHT22;53955;52.442;13.284;2022-09-01T08:20:42;26.90;21.80
67050;DHT22;53955;52.442;13.284;2022-09-01T08:23:10;27.10;21.80
67050;DHT22;53955;52.442;13.284;2022-09-01T08:25:38;27.60;19.30
67050;DHT22;53955;52.442;13.284;2022-09-01T08:28:06;27.40;20.30
67050;DHT22;53955;52.442;13.284;2022-09-01T08:30:33;27.50;20.10
67050;DHT22;53955;52.442;13.284;2022-09-01T08:33:00;27.40;20.60
67050;DHT22;53955;52.442;13.284;2022-09-01T08:35:28;27.40;20.40
67050;DHT22;53955;52.442;13.284;2022-09-01T08:37:56;27.30;19.40
67050;DHT22;53955;52.442;13.284;2022-09-01T08:40:23;26.80;20.70
67050;DHT22;53955;52.442;13.284;2022-09-01T08:42:56;26.90;20.50
67050;DHT22;53955;52.442;13.284;2022-09-01T08:45:29;27.10;21.60
67050;DHT22;53955;52.442;13.284;2022-09-01T08:48:01;27.30;21.10
67050;DHT22;53955;52.442;13.284;2022-09-01T08:50:38;27.40;20.60
67050;DHT22;53955;52.442;13.284;2022-09-01T08:53:11;27.30;17.70
67050;DHT22;53955;52.442;13.284;2022-09-01T08:55:43;27.10;18.90
67050;DHT22;53955;52.442;13.284;2022-09-01T08:58:15;27.20;20.00
67050;DHT22;53955;52.442;13.284;2022-09-01T09:00:46;27.40;19.20
67050;DHT22;53955;52.442;13.284;2022-09-01T09:03:19;27.20;18.80
67050;DHT22;53955;52.442;13.284;2022-09-01T09:06:02;27.00;19.00
67050;DHT22;53955;52.442;13.284;2022-09-01T09:08:47;26.50;18.90
67050;DHT22;53955;52.442;13.284;2022-09-01T09:11:28;26.30;20.10
67050;DHT22;53955;52.442;13.284;2022-09-01T09:14:04;26.40;19.10
67050;DHT22;53955;52.442;13.284;2022-09-01T09:16:39;26.00;19.50
67050;DHT22;53955;52.442;13.284;2022-09-01T09:19:10;25.30;20.30
67050;DHT22;53955;52.442;13.284;2022-09-01T09:21:41;25.20;20.70
67050;DHT22;53955;52.442;13.284;2022-09-01T09:24:10;25.50;20.30
67050;DHT22;53955;52.442;13.284;2022-09-01T09:26:38;25.90;20.80
67050;DHT22;53955;52.442;13.284;2022-09-01T09:29:05;25.80;20.00
67050;DHT22;53955;52.442;13.284;2022-09-01T09:31:34;26.00;21.00
67050;DHT22;53955;52.442;13.284;2022-09-01T09:34:03;26.20;20.10
67050;DHT22;53955;52.442;13.284;2022-09-01T09:36:42;25.60;19.10
67050;DHT22;53955;52.442;13.284;2022-09-01T09:39:12;25.60;20.20
67050;DHT22;53955;52.442;13.284;2022-09-01T09:41:41;25.80;18.70
67050;DHT22;53955;52.442;13.284;2022-09-01T09:44:20;25.90;18.40
67050;DHT22;53955;52.442;13.284;2022-09-01T09:46:47;25.70;19.20
67050;DHT22;53955;52.442;13.284;2022-09-01T09:49:17;25.70;20.80
67050;DHT22;53955;52.442;13.284;2022-09-01T09:51:47;25.80;22.00
67050;DHT22;53955;52.442;13.284;2022-09-01T09:54:19;25.90;21.10
67050;DHT22;53955;52.442;13.284;2022-09-01T09:56:48;26.10;21.80
67050;DHT22;53955;52.442;13.284;2022-09-01T09:59:18;26.30;20.40
67050;DHT22;53955;52.442;13.284;2022-09-01T10:01:47;26.30;20.70
67050;DHT22;53955;52.442;13.284;2022-09-01T10:04:32;26.10;20.10
67050;DHT22;53955;52.442;13.284;2022-09-01T10:07:00;25.80;22.60
67050;DHT22;53955;52.442;13.284;2022-09-01T10:09:36;25.80;23.10
67050;DHT22;53955;52.442;13.284;2022-09-01T10:12:04;26.10;22.40
67050;DHT22;53955;52.442;13.284;2022-09-01T10:14:39;26.30;21.50
67050;DHT22;53955;52.442;13.284;2022-09-01T10:17:11;26.10;20.60
67050;DHT22;53955;52.442;13.284;2022-09-01T10:19:46;25.70;22.10
67050;DHT22;53955;52.442;13.284;2022-09-01T10:22:15;25.20;21.60
67050;DHT22;53955;52.442;13.284;2022-09-01T10:24:42;24.60;22.80
67050;DHT22;53955;52.442;13.284;2022-09-01T10:27:14;24.40;23.70
67050;DHT22;53955;52.442;13.284;2022-09-01T10:29:47;24.10;23.20
67050;DHT22;53955;52.442;13.284;2022-09-01T10:32:18;24.40;24.40
67050;DHT22;53955;52.442;13.284;2022-09-01T10:34:46;25.10;23.90
67050;DHT22;53955;52.442;13.284;2022-09-01T10:37:15;25.50;23.40
67050;DHT22;53955;52.442;13.284;2022-09-01T10:40:11;25.60;21.60
67050;DHT22;53955;52.442;13.284;2022-09-01T10:42:39;25.30;22.70
67050;DHT22;53955;52.442;13.284;2022-09-01T10:45:16;25.50;22.60
67050;DHT22;53955;52.442;13.284;2022-09-01T10:47:43;25.40;22.40
67050;DHT22;53955;52.442;13.284;2022-09-01T10:50:25;25.60;22.10
67050;DHT22;53955;52.442;13.284;2022-09-01T10:52:59;25.60;20.30
67050;DHT22;53955;52.442;13.284;2022-09-01T10:55:42;25.40;21.10
67050;DHT22;53955;52.442;13.284;2022-09-01T10:58:34;25.50;21.10
67050;DHT22;53955;52.442;13.284;2022-09-01T11:01:04;25.70;21.60
67050;DHT22;53955;52.442;13.284;2022-09-01T11:03:58;25.80;19.60
67050;DHT22;53955;52.442;13.284;2022-09-01T11:06:54;25.80;19.00
67050;DHT22;53955;52.442;13.284;2022-09-01T11:09:33;25.70;19.20
67050;DHT22;53955;52.442;13.284;2022-09-01T11:12:39;25.20;19.80
67050;DHT22;53955;52.442;13.284;2022-09-01T11:15:32;25.60;20.80
67050;DHT22;53955;52.442;13.284;2022-09-01T11:18:00;25.70;20.50
67050;DHT22;53955;52.442;13.284;2022-09-01T11:20:29;25.80;20.20
67050;DHT22;53955;52.442;13.284;2022-09-01T11:22:59;25.60;19.80
67050;DHT22;53955;52.442;13.284;2022-09-01T11:25:36;25.10;19.80
67050;DHT22;53955;52.442;13.284;2022-09-01T11:28:06;25.00;19.90
67050;DHT22;53955;52.442;13.284;2022-09-01T11:30:39;24.80;20.80
67050;DHT22;53955;52.442;13.284;2022-09-01T11:33:28;24.50;20.30
67050;DHT22;53955;52.442;13.284;2022-09-01T11:35:59;24.40;20.40
67050;DHT22;53955;52.442;13.284;2022-09-01T11:38:28;24.30;20.10
67050;DHT22;53955;52.442;13.284;2022-09-01T11:40:58;24.10;20.20
67050;DHT22;53955;52.442;13.284;2022-09-01T11:43:25;24.10;21.30
67050;DHT22;53955;52.442;13.284;2022-09-01T11:46:01;24.00;21.20
67050;DHT22;53955;52.442;13.284;2022-09-01T11:48:31;24.00;21.50
67050;DHT22;53955;52.442;13.284;2022-09-01T11:51:00;24.00;21.40
67050;DHT22;53955;52.442;13.284;2022-09-01T11:53:27;24.00;22.50
67050;DHT22;53955;52.442;13.284;2022-09-01T11:55:56;24.10;22.20
67050;DHT22;53955;52.442;13.284;2022-09-01T11:58:38;24.20;22.70
67050;DHT22;53955;52.442;13.284;2022-09-01T12:01:15;24.20;21.30
67050;DHT22;53955;52.442;13.284;2022-09-01T12:03:43;24.30;21.20
67050;DHT22;53955;52.442;13.284;2022-09-01T12:06:18;24.40;21.00
67050;DHT22;53955;52.442;13.284;2022-09-01T12:08:53;24.40;21.20
67050;DHT22;53955;52.442;13.284;2022-09-01T12:11:22;24.50;21.20
67050;DHT22;53955;52.442;13.284;2022-09-01T12:13:56;24.60;20.00
67050;DHT22;53955;52.442;13.284;2022-09-01T12:16:24;24.50;20.40
67050;DHT22;53955;52.442;13.284;2022-09-01T12:18:52;24.40;21.40
67050;DHT22;53955;52.442;13.284;2022-09-01T12:21:21;24.50;20.70
67050;DHT22;53955;52.442;13.284;2022-09-01T12:23:48;24.30;19.70
67050;DHT22;53955;52.442;13.284;2022-09-01T12:26:17;24.30;21.00
67050;DHT22;53955;52.442;13.284;2022-09-01T12:28:44;24.20;21.20
67050;DHT22;53955;52.442;13.284;2022-09-01T12:31:18;24.00;20.10
67050;DHT22;53955;52.442;13.284;2022-09-01T12:33:46;23.90;20.80
67050;DHT22;53955;52.442;13.284;2022-09-01T12:36:19;23.90;22.30
67050;DHT22;53955;52.442;13.284;2022-09-01T12:38:46;24.00;21.40
67050;DHT22;53955;52.442;13.284;2022-09-01T12:41:31;24.00;21.00
67050;DHT22;53955;52.442;13.284;2022-09-01T12:44:27;24.10;21.40
67050;DHT22;53955;52.442;13.284;2022-09-01T12:46:56;24.20;20.90
67050;DHT22;53955;52.442;13.284;2022-09-01T12:49:26;24.30;20.40
67050;DHT22;53955;52.442;13.284;2022-09-01T12:52:10;24.40;20.50
67050;DHT22;53955;52.442;13.284;2022-09-01T12:54:37;24.50;20.80
67050;DHT22;53955;52.442;13.284;2022-09-01T12:57:04;24.50;22.40
67050;DHT22;53955;52.442;13.284;2022-09-01T12:59:32;24.60;21.90
67050;DHT22;53955;52.442;13.284;2022-09-01T13:02:27;24.60;21.80
67050;DHT22;53955;52.442;13.284;2022-09-01T13:05:17;24.50;23.10
67050;DHT22;53955;52.442;13.284;2022-09-01T13:07:43;24.70;21.70
67050;DHT22;53955;52.442;13.284;2022-09-01T13:10:10;24.60;22.10
67050;DHT22;53955;52.442;13.284;2022-09-01T13:12:38;24.60;23.50
67050;DHT22;53955;52.442;13.284;2022-09-01T13:15:06;24.80;23.20
67050;DHT22;53955;52.442;13.284;2022-09-01T13:17:34;24.90;22.20
67050;DHT22;53955;52.442;13.284;2022-09-01T13:20:02;25.00;21.10
67050;DHT22;53955;52.442;13.284;2022-09-01T13:22:29;25.10;21.80
67050;DHT22;53955;52.442;13.284;2022-09-01T13:24:56;25.10;21.50
67050;DHT22;53955;52.442;13.284;2022-09-01T13:27:22;25.20;21.60
67050;DHT22;53955;52.442;13.284;2022-09-01T13:29:49;25.10;21.70
67050;DHT22;53955;52.442;13.284;2022-09-01T13:32:18;25.10;22.90
67050;DHT22;53955;52.442;13.284;2022-09-01T13:34:46;25.20;22.70
67050;DHT22;53955;52.442;13.284;2022-09-01T13:37:13;25.20;21.30
67050;DHT22;53955;52.442;13.284;2022-09-01T13:39:39;25.40;21.50
67050;DHT22;53955;52.442;13.284;2022-09-01T13:42:06;25.40;20.00
67050;DHT22;53955;52.442;13.284;2022-09-01T13:44:33;25.40;19.90
67050;DHT22;53955;52.442;13.284;2022-09-01T13:46:59;25.50;18.50
67050;DHT22;53955;52.442;13.284;2022-09-01T13:49:26;25.50;19.40
67050;DHT22;53955;52.442;13.284;2022-09-01T13:51:54;25.40;19.70
67050;DHT22;53955;52.442;13.284;2022-09-01T13:54:20;25.30;20.60
67050;DHT22;53955;52.442;13.284;2022-09-01T13:56:47;25.30;20.80
67050;DHT22;53955;52.442;13.284;2022-09-01T13:59:13;25.40;20.10
67050;DHT22;53955;52.442;13.284;2022-09-01T14:01:40;25.30;19.30
67050;DHT22;53955;52.442;13.284;2022-09-01T14:04:07;25.30;21.20
67050;DHT22;53955;52.442;13.284;2022-09-01T14:06:38;25.20;21.20
67050;DHT22;53955;52.442;13.284;2022-09-01T14:09:06;25.30;21.20
67050;DHT22;53955;52.442;13.284;2022-09-01T14:11:33;25.20;21.50
67050;DHT22;53955;52.442;13.284;2022-09-01T14:14:00;25.10;20.40
67050;DHT22;53955;52.442;13.284;2022-09-01T14:16:27;25.20;21.20
67050;DHT22;53955;52.442;13.284;2022-09-01T14:18:54;25.10;21.80
67050;DHT22;53955;52.442;13.284;2022-09-01T14:21:20;25.20;20.50
67050;DHT22;53955;52.442;13.284;2022-09-01T14:23:47;25.10;20.80
67050;DHT22;53955;52.442;13.284;2022-09-01T14:26:15;25.10;21.50
67050;DHT22;53955;52.442;13.284;2022-09-01T14:28:43;25.10;21.00
67050;DHT22;53955;52.442;13.284;2022-09-01T14:31:13;25.20;20.70
67050;DHT22;53955;52.442;13.284;2022-09-01T14:33:41;25.10;21.60
67050;DHT22;53955;52.442;13.284;2022-09-01T14:36:14;25.10;22.10
67050;DHT22;53955;52.442;13.284;2022-09-01T14:38:41;25.10;22.50
67050;DHT22;53955;52.442;13.284;2022-09-01T14:41:08;25.10;23.30
67050;DHT22;53955;52.442;13.284;2022-09-01T14:43:39;25.30;20.60
67050;DHT22;53955;52.442;13.284;2022-09-01T14:46:08;25.20;19.50
67050;DHT22;53955;52.442;13.284;2022-09-01T14:48:37;24.90;19.60
67050;DHT22;53955;52.442;13.284;2022-09-01T14:51:04;24.80;19.80
67050;DHT22;53955;52.442;13.284;2022-09-01T14:53:31;24.70;21.10
67050;DHT22;53955;52.442;13.284;2022-09-01T14:55:59;24.70;22.20
67050;DHT22;53955;52.442;13.284;2022-09-01T14:58:27;24.70;22.50
67050;DHT22;53955;52.442;13.284;2022-09-01T15:00:55;24.80;22.20
67050;DHT22;53955;52.442;13.284;2022-09-01T15:03:23;24.80;20.40
67050;DHT22;53955;52.442;13.284;2022-09-01T15:05:50;24.90;21.40
67050;DHT22;53955;52.442;13.284;2022-09-01T15:08:17;24.90;20.70
67050;DHT22;53955;52.442;13.284;2022-09-01T15:10:44;24.70;20.90
67050;DHT22;53955;52.442;13.284;2022-09-01T15:13:11;24.80;21.50
67050;DHT22;53955;52.442;13.284;2022-09-01T15:15:38;24.70;21.70
67050;DHT22;53955;52.442;13.284;2022-09-01T15:18:06;24.70;21.50
67050;DHT22;53955;52.442;13.284;2022-09-01T15:20:38;24.70;21.10
67050;DHT22;53955;52.442;13.284;2022-09-01T15:23:12;24.60;21.40
67050;DHT22;53955;52.442;13.284;2022-09-01T15:25:39;24.60;20.80
67050;DHT22;53955;52.442;13.284;2022-09-01T15:28:05;24.60;21.20
67050;DHT22;53955;52.442;13.284;2022-09-01T15:30:32;24.70;21.40
67050;DHT22;53955;52.442;13.284;2022-09-01T15:32:59;24.80;21.00